Time;durP1;ratioP1;P1;durP2;ratioP2;P2;SDS_P1;SDS_P2;PMS_P1;PMS_P2;Temp;Humidity;BMP_temperature;BMP_pressure;BME280_temperature;BME280_humidity;BME280_pressure;Samples;Min_cycle;Max_cycle;Signal;HPM_P1;HPM_P2
2023/03/04 00:00:11;;;;;;;8.23;3.60;;;4.60;99.90;;;;;;5101341;28;20174;-83
2023/03/04 00:02:37;;;;;;;14.83;5.10;;;4.50;99.90;;;;;;5100716;28;20170;-83
2023/03/04 00:05:02;;;;;;;11.73;5.57;;;4.60;99.90;;;;;;5101126;28;20176;-83
2023/03/04 00:07:28;;;;;;;17.37;5.03;;;4.50;99.90;;;;;;5100542;28;20171;-83
2023/03/04 00:09:54;;;;;;;14.33;4.90;;;4.50;99.90;;;;;;5100103;28;20197;-83
2023/03/04 00:12:19;;;;;;;11.37;5.43;;;4.50;99.90;;;;;;5100256;28;20249;-83
2023/03/04 00:14:45;;;;;;;12.07;5.00;;;4.50;99.90;;;;;;5081583;28;20237;-83
2023/03/04 00:17:10;;;;;;;20.53;6.03;;;4.40;99.90;;;;;;5101695;28;20174;-83
2023/03/04 00:19:36;;;;;;;13.40;4.60;;;4.40;99.90;;;;;;5101739;28;20178;-84
2023/03/04 00:25:54;;;;;;;12.60;4.03;;;4.40;99.90;;;;;;5053902;28;20186;-84
2023/03/04 00:28:22;;;;;;;13.87;4.13;;;4.40;99.90;;;;;;5082142;28;20173;-84
2023/03/04 00:30:53;;;;;;;12.43;3.73;;;5.00;99.90;;;;;;5100124;28;20194;-84
2023/03/04 00:33:27;;;;;;;13.47;3.77;;;4.50;99.90;;;;;;5082081;28;20646;-84
2023/03/04 00:39:16;;;;;;;12.73;3.83;;;3.30;99.90;;;;;;5099035;28;20159;-84
2023/03/04 00:41:43;;;;;;;16.13;4.03;;;4.50;99.90;;;;;;5081973;28;20220;-84
2023/03/04 00:44:15;;;;;;;9.53;3.40;;;4.80;99.90;;;;;;5099172;28;20257;-83
2023/03/04 00:46:57;;;;;;;16.87;4.00;;;4.50;99.90;;;;;;5080835;28;20182;-84
2023/03/04 00:49:25;;;;;;;14.17;3.63;;;5.40;99.90;;;;;;5098618;28;20240;-84
2023/03/04 00:51:59;;;;;;;12.23;4.73;;;4.50;99.90;;;;;;5080829;28;20207;-84
2023/03/04 00:57:26;;;;;;;14.33;4.97;;;4.70;99.90;;;;;;5060047;28;20657;-84
2023/03/04 01:00:10;;;;;;;11.33;5.07;;;4.40;99.90;;;;;;5080866;28;20182;-84
2023/03/04 01:02:59;;;;;;;17.27;7.37;;;4.30;99.90;;;;;;5097637;28;20231;-84
2023/03/04 01:05:41;;;;;;;;;;;;;;;;;;;;;
2023/03/04 01:08:28;;;;;;;12.83;6.53;;;4.00;99.90;;;;;;5098723;28;20252;-84
2023/03/04 01:11:19;;;;;;;13.23;7.30;;;4.20;99.90;;;;;;5098872;28;20226;-84
2023/03/04 01:13:58;;;;;;;15.60;6.63;;;4.60;99.90;;;;;;5099175;28;20174;-84
2023/03/04 01:16:51;;;;;;;18.37;7.27;;;4.10;99.90;;;;;;5080353;28;20217;-84
2023/03/04 01:19:29;;;;;;;14.17;7.20;;;4.40;99.90;;;;;;5098324;28;20537;-84
2023/03/04 01:22:09;;;;;;;14.83;6.67;;;4.80;99.90;;;;;;5099158;28;20182;-84
2023/03/04 01:25:04;;;;;;;13.90;6.47;;;4.10;99.90;;;;;;5099258;28;20154;-83
2023/03/04 01:27:58;;;;;;;12.77;5.10;;;4.10;99.90;;;;;;5080341;28;20163;-84
2023/03/04 01:30:34;;;;;;;13.80;5.97;;;4.30;99.90;;;;;;5084533;28;20247;-84
2023/03/04 01:33:05;;;;;;;16.07;3.80;;;4.10;99.90;;;;;;5098573;28;20170;-84
2023/03/04 01:35:38;;;;;;;15.47;3.97;;;4.20;99.90;;;;;;5080076;28;20197;-84
2023/03/04 01:38:06;;;;;;;11.87;4.30;;;4.50;99.90;;;;;;5100512;28;20650;-86
2023/03/04 01:41:07;;;;;;;9.13;4.20;;;4.40;99.90;;;;;;5099296;28;20186;-84
2023/03/04 01:43:40;;;;;;;10.77;3.27;;;4.30;99.90;;;;;;5098885;28;20190;-84
2023/03/04 01:46:16;;;;;;;;;;;;;;;;;;;;;
2023/03/04 01:48:53;;;;;;;13.90;4.10;;;4.80;99.90;;;;;;5098273;28;20657;-84
2023/03/04 01:51:36;;;;;;;19.07;4.17;;;4.50;99.90;;;;;;5097548;28;20227;-83
2023/03/04 01:54:23;;;;;;;13.17;3.13;;;4.40;99.90;;;;;;5079669;28;20162;-84
2023/03/04 01:57:09;;;;;;;;;;;;;;;;;;;;;
2023/03/04 01:59:46;;;;;;;14.03;4.33;;;4.20;99.90;;;;;;5097279;28;20260;-83
2023/03/04 02:02:41;;;;;;;15.10;2.97;;;4.60;99.90;;;;;;5096750;28;20201;-84
2023/03/04 02:05:25;;;;;;;13.33;3.53;;;5.30;99.90;;;;;;5096580;28;20166;-84
2023/03/04 02:08:00;;;;;;;20.63;4.10;;;4.60;99.90;;;;;;5077511;28;20227;-84
2023/03/04 02:10:58;;;;;;;14.87;4.23;;;4.50;99.90;;;;;;5078448;28;20257;-84
2023/03/04 02:13:53;;;;;;;11.70;4.13;;;4.40;99.90;;;;;;5084233;28;20182;-84
2023/03/04 02:16:19;;;;;;;11.17;3.60;;;4.70;99.90;;;;;;5079064;28;20285;-84
2023/03/04 02:19:01;;;;;;;12.60;3.10;;;5.50;99.90;;;;;;5078949;28;20209;-84
2023/03/04 02:21:32;;;;;;;10.17;3.50;;;4.90;99.90;;;;;;5079327;28;20283;-84
2023/03/04 02:24:29;;;;;;;15.13;3.50;;;4.60;99.90;;;;;;5080362;28;20162;-84
2023/03/04 02:27:13;;;;;;;;;;;;;;;;;;;;;
2023/03/04 02:29:47;;;;;;;17.13;4.37;;;4.80;99.90;;;;;;5098749;28;20714;-84
2023/03/04 02:32:38;;;;;;;14.37;3.47;;;5.00;99.90;;;;;;5080759;28;20194;-84
2023/03/04 02:35:05;;;;;;;14.00;4.03;;;4.70;99.90;;;;;;5078754;28;20192;-84
2023/03/04 02:37:34;;;;;;;8.87;2.83;;;4.70;99.90;;;;;;5080392;28;20200;-84
2023/03/04 02:40:41;;;;;;;18.10;3.60;;;4.90;99.90;;;;;;5099159;28;20182;-84
2023/03/04 02:43:16;;;;;;;14.00;3.50;;;4.90;99.90;;;;;;5068786;28;20182;-86
2023/03/04 02:46:18;;;;;;;16.17;3.57;;;4.80;99.90;;;;;;5080765;28;20162;-83
2023/03/04 02:51:43;;;;;;;18.80;4.13;;;4.80;99.90;;;;;;4996617;28;20260;-84
2023/03/04 02:58:12;;;;;;;13.23;3.73;;;5.00;99.90;;;;;;4987858;28;20216;-84
2023/03/04 03:01:13;;;;;;;18.17;4.00;;;5.00;99.90;;;;;;4953320;28;20602;-84
2023/03/04 03:03:39;;;;;;;20.87;3.67;;;4.90;99.90;;;;;;5061115;28;20251;-85
2023/03/04 03:06:25;;;;;;;17.97;3.60;;;5.60;99.90;;;;;;5097852;28;20170;-84
2023/03/04 03:12:15;;;;;;;19.37;6.30;;;4.90;99.90;;;;;;5052182;28;20212;-83
2023/03/04 03:15:35;;;;;;;;;;;;;;;;;;;;;
2023/03/04 03:18:30;;;;;;;19.77;6.90;;;5.40;99.90;;;;;;4996251;28;20329;-84
2023/03/04 03:22:24;;;;;;;17.00;5.10;;;4.80;99.90;;;;;;4993424;28;20209;-84
2023/03/04 03:24:46;;;;;;;11.97;3.93;;;4.90;99.90;;;;;;4997973;28;20189;-85
2023/03/04 03:27:54;;;;;;;;;;;;;;;;;;;;;
2023/03/04 03:34:19;;;;;;;14.70;4.67;;;4.90;99.90;;;;;;5086418;28;20316;-84
2023/03/04 03:41:07;;;;;;;9.83;3.70;;;4.90;99.90;;;;;;5086013;28;20275;-85
2023/03/04 03:51:14;;;;;;;20.17;4.43;;;5.00;99.90;;;;;;5054438;28;20669;-84
2023/03/04 03:54:38;;;;;;;;;;;;;;;;;;;;;
2023/03/04 03:58:07;;;;;;;10.47;4.33;;;5.00;99.90;;;;;;5100433;28;20304;-84
2023/03/04 04:07:45;;;;;;;15.60;3.77;;;4.40;99.90;;;;;;4986358;28;20177;-85
2023/03/04 04:10:59;;;;;;;14.60;3.67;;;4.60;99.90;;;;;;4982061;28;20311;-84
2023/03/04 04:14:13;;;;;;;13.10;3.03;;;4.90;99.90;;;;;;4978883;28;20676;-84
2023/03/04 04:17:04;;;;;;;8.67;3.57;;;5.00;99.90;;;;;;4969990;28;20222;-84
2023/03/04 04:19:58;;;;;;;13.03;3.23;;;4.90;99.90;;;;;;5038001;28;20597;-84
2023/03/04 04:22:52;;;;;;;10.97;3.10;;;5.10;99.90;;;;;;5020998;28;20203;-84
2023/03/04 04:26:00;;;;;;;16.50;4.00;;;5.00;99.90;;;;;;5036627;28;20191;-84
2023/03/04 04:29:19;;;;;;;;;;;;;;;;;;;;;
2023/03/04 04:32:00;;;;;;;14.07;5.77;;;5.20;99.90;;;;;;5038260;28;20296;-84
2023/03/04 04:35:11;;;;;;;13.77;5.70;;;5.00;99.90;;;;;;5082156;28;20170;-85
2023/03/04 04:38:05;;;;;;;17.73;6.17;;;5.70;99.90;;;;;;5082148;28;20243;-84
2023/03/04 04:41:36;;;;;;;11.83;5.20;;;5.10;99.90;;;;;;5038492;28;20202;-85
2023/03/04 04:48:08;;;;;;;16.07;4.97;;;5.30;99.90;;;;;;5099741;28;20180;-84
2023/03/04 04:54:15;;;;;;;14.50;4.03;;;5.20;99.90;;;;;;5066467;28;20185;-84
2023/03/04 04:56:54;;;;;;;14.00;3.80;;;5.10;99.90;;;;;;5080475;28;20229;-84
2023/03/04 04:59:55;;;;;;;10.27;4.47;;;5.00;99.90;;;;;;5081332;28;20270;-85
2023/03/04 05:02:49;;;;;;;13.93;4.50;;;4.50;99.90;;;;;;5055562;28;20205;-83
2023/03/04 05:09:12;;;;;;;11.17;3.50;;;5.00;99.90;;;;;;5036184;28;20238;-84
2023/03/04 05:15:27;;;;;;;12.80;2.67;;;5.00;99.90;;;;;;4997395;28;20701;-86
2023/03/04 05:18:37;;;;;;;15.73;2.90;;;5.40;99.90;;;;;;5035684;28;20323;-84
2023/03/04 05:28:53;;;;;;;10.87;2.70;;;5.00;99.90;;;;;;4998832;28;20184;-85
2023/03/04 05:32:01;;;;;;;;;;;;;;;;;;;;;
2023/03/04 05:38:25;;;;;;;;;;;;;;;;;;;;;
2023/03/04 05:41:35;;;;;;;15.90;5.03;;;5.00;99.90;;;;;;5018666;28;20207;-84
2023/03/04 05:44:41;;;;;;;13.00;4.87;;;4.90;99.90;;;;;;5019668;28;20267;-84
2023/03/04 05:48:06;;;;;;;;;;;;;;;;;;;;;
2023/03/04 05:51:07;;;;;;;13.70;2.30;;;4.70;99.90;;;;;;5098450;28;20273;-85
2023/03/04 05:54:10;;;;;;;9.10;2.97;;;5.00;99.90;;;;;;5098902;28;20154;-85
2023/03/04 05:57:04;;;;;;;20.10;5.30;;;5.10;99.90;;;;;;5080471;28;20197;-85
2023/03/04 05:59:57;;;;;;;15.70;5.20;;;5.00;99.90;;;;;;5076239;28;20259;-84
2023/03/04 06:02:30;;;;;;;21.70;4.57;;;5.10;99.90;;;;;;5079067;28;20194;-85
2023/03/04 06:05:09;;;;;;;13.23;4.40;;;5.10;99.90;;;;;;5078981;28;20600;-84
2023/03/04 06:07:56;;;;;;;;;;;;;;;;;;;;;
2023/03/04 06:10:24;;;;;;;7.77;2.70;;;4.90;99.90;;;;;;5098738;28;20234;-84
2023/03/04 06:12:53;;;;;;;10.20;2.53;;;4.30;99.90;;;;;;5079686;28;20555;-84
2023/03/04 06:15:39;;;;;;;10.73;2.63;;;5.90;99.90;;;;;;5097731;28;20170;-84
2023/03/04 06:18:13;;;;;;;8.50;2.53;;;5.20;99.90;;;;;;5079535;28;20197;-83
2023/03/04 06:21:48;;;;;;;14.30;2.80;;;5.20;99.90;;;;;;5080884;28;20562;-84
2023/03/04 06:24:29;;;;;;;;;;;;;;;;;;;;;
2023/03/04 06:27:40;;;;;;;9.60;2.57;;;5.10;99.90;;;;;;5097815;28;20249;-84
2023/03/04 06:30:15;;;;;;;8.93;2.70;;;5.10;99.90;;;;;;5053370;28;20193;-84
2023/03/04 06:33:10;;;;;;;7.43;2.33;;;5.20;99.90;;;;;;5096810;28;20650;-84
2023/03/04 06:36:32;;;;;;;11.03;2.53;;;5.10;99.90;;;;;;5078171;28;20205;-85
2023/03/04 06:39:57;;;;;;;14.00;2.70;;;5.10;99.90;;;;;;5065556;28;20543;-85
2023/03/04 06:45:48;;;;;;;9.70;2.80;;;5.00;99.90;;;;;;5015060;28;20185;-84
2023/03/04 06:48:13;;;;;;;7.80;1.73;;;5.10;99.90;;;;;;5065101;28;20190;-84
2023/03/04 06:50:39;;;;;;;10.40;2.80;;;5.30;99.90;;;;;;5077315;28;20258;-83
2023/03/04 06:53:05;;;;;;;10.00;3.27;;;6.10;99.90;;;;;;5077675;28;20174;-84
2023/03/04 06:55:31;;;;;;;16.10;3.07;;;5.20;99.90;;;;;;5077219;28;20288;-83
2023/03/04 06:57:56;;;;;;;16.13;3.33;;;5.60;99.90;;;;;;5095491;28;20172;-84
2023/03/04 07:00:24;;;;;;;15.47;3.27;;;5.20;99.90;;;;;;5076807;28;20179;-84
2023/03/04 07:02:52;;;;;;;9.60;2.80;;;5.30;99.90;;;;;;5095275;28;20170;-84
2023/03/04 07:05:18;;;;;;;11.97;2.20;;;4.80;99.90;;;;;;5076401;28;20240;-84
2023/03/04 07:07:43;;;;;;;7.57;2.40;;;5.10;99.90;;;;;;5076489;28;20174;-84
2023/03/04 07:10:09;;;;;;;8.00;2.60;;;5.30;99.90;;;;;;5076659;28;20626;-85
2023/03/04 07:12:35;;;;;;;9.13;2.43;;;5.20;99.90;;;;;;5076122;28;20264;-84
2023/03/04 07:15:01;;;;;;;10.60;2.23;;;5.10;99.90;;;;;;5076444;28;20261;-84
2023/03/04 07:17:27;;;;;;;8.83;2.07;;;5.10;99.90;;;;;;5077353;28;20679;-84
2023/03/04 07:19:53;;;;;;;7.83;2.10;;;5.60;99.90;;;;;;5076927;28;20170;-84
2023/03/04 07:22:18;;;;;;;9.40;1.77;;;5.30;99.90;;;;;;5094488;28;20273;-84
2023/03/04 07:24:44;;;;;;;9.40;2.27;;;5.30;99.90;;;;;;5094615;28;20190;-84
2023/03/04 07:27:09;;;;;;;11.03;2.07;;;5.30;99.90;;;;;;5076246;28;20188;-83
2023/03/04 07:29:41;;;;;;;9.40;1.63;;;5.20;99.90;;;;;;5093788;28;20178;-84
2023/03/04 07:32:07;;;;;;;11.57;2.83;;;5.20;99.90;;;;;;5076234;28;20210;-84
2023/03/04 07:34:35;;;;;;;5.53;2.20;;;5.60;99.90;;;;;;5076357;28;20185;-84
2023/03/04 07:37:01;;;;;;;4.30;1.90;;;5.10;99.90;;;;;;5076605;28;20208;-84
2023/03/04 07:39:27;;;;;;;7.57;2.30;;;4.80;99.90;;;;;;5094306;28;20174;-85
2023/03/04 07:41:52;;;;;;;9.10;3.00;;;5.20;99.90;;;;;;5075547;28;20234;-84
2023/03/04 07:44:20;;;;;;;10.63;3.00;;;5.50;99.90;;;;;;5076049;28;20178;-84
2023/03/04 07:46:46;;;;;;;7.30;2.40;;;5.50;99.90;;;;;;5075214;28;20652;-84
2023/03/04 07:49:12;;;;;;;7.30;1.70;;;5.60;99.90;;;;;;5097517;28;20181;-83
2023/03/04 07:51:38;;;;;;;8.47;1.90;;;5.30;99.90;;;;;;5080392;28;20205;-83
2023/03/04 07:54:04;;;;;;;9.40;2.03;;;5.20;99.90;;;;;;5079913;28;20539;-83
2023/03/04 07:56:31;;;;;;;12.77;1.63;;;5.30;99.90;;;;;;5080971;28;20202;-83
2023/03/04 07:58:57;;;;;;;7.00;1.83;;;5.20;99.90;;;;;;5098677;28;20230;-83
2023/03/04 08:01:34;;;;;;;8.60;2.10;;;5.30;99.90;;;;;;5080591;28;20293;-83
2023/03/04 08:04:01;;;;;;;3.63;1.70;;;5.30;99.90;;;;;;5079932;28;20167;-84
2023/03/04 08:06:27;;;;;;;17.17;2.10;;;5.30;99.90;;;;;;5078413;28;20243;-84
2023/03/04 08:09:02;;;;;;;7.60;2.20;;;5.40;99.90;;;;;;5098356;28;20545;-84
2023/03/04 08:11:29;;;;;;;7.57;2.23;;;5.40;99.90;;;;;;5099505;28;20672;-84
2023/03/04 08:13:56;;;;;;;9.73;2.50;;;5.40;99.90;;;;;;5090065;28;20186;-83
2023/03/04 08:16:22;;;;;;;10.80;2.30;;;5.50;99.90;;;;;;5081592;28;20269;-84
2023/03/04 08:18:51;;;;;;;5.97;2.77;;;5.50;99.90;;;;;;5097307;28;20186;-84
2023/03/04 08:21:18;;;;;;;8.47;2.03;;;5.60;99.90;;;;;;5079077;28;20190;-84
2023/03/04 08:23:45;;;;;;;5.20;1.67;;;5.50;99.90;;;;;;5079709;28;20175;-84
2023/03/04 08:26:14;;;;;;;5.07;2.13;;;5.50;99.90;;;;;;5097273;28;20177;-83
2023/03/04 08:28:40;;;;;;;7.97;2.00;;;5.50;99.90;;;;;;5079126;28;20230;-83
2023/03/04 08:31:06;;;;;;;6.60;1.70;;;5.60;99.90;;;;;;5097033;28;20205;-83
2023/03/04 08:33:32;;;;;;;8.80;2.03;;;5.60;99.90;;;;;;5079611;28;20179;-83
2023/03/04 08:35:57;;;;;;;6.40;2.20;;;5.60;99.90;;;;;;5078561;28;20229;-83
2023/03/04 08:38:23;;;;;;;7.07;1.87;;;5.70;99.90;;;;;;5078766;28;20182;-84
2023/03/04 08:40:56;;;;;;;8.77;2.40;;;5.70;99.90;;;;;;5077498;28;20198;-85
2023/03/04 08:43:23;;;;;;;7.17;1.87;;;5.70;99.90;;;;;;5077506;28;20177;-84
2023/03/04 08:45:49;;;;;;;2.43;1.30;;;5.80;99.90;;;;;;5096850;28;20182;-85
2023/03/04 08:48:16;;;;;;;12.00;2.00;;;5.80;99.90;;;;;;5078116;28;20178;-85
2023/03/04 08:50:43;;;;;;;12.77;2.00;;;5.80;99.90;;;;;;5099634;28;20198;-83
2023/03/04 08:53:08;;;;;;;7.00;1.60;;;5.80;99.90;;;;;;5081413;28;20558;-84
2023/03/04 08:55:36;;;;;;;8.93;1.97;;;5.70;99.90;;;;;;5100238;28;20209;-83
2023/03/04 08:58:01;;;;;;;4.63;1.40;;;5.80;99.90;;;;;;5083145;28;20181;-82
2023/03/04 09:00:27;;;;;;;8.17;1.50;;;5.80;99.90;;;;;;5101289;28;20616;-82
2023/03/04 09:02:54;;;;;;;7.60;1.90;;;5.80;99.90;;;;;;5104636;28;20171;-81
2023/03/04 09:05:20;;;;;;;5.13;1.77;;;5.90;99.90;;;;;;5104698;28;20606;-82
2023/03/04 09:07:46;;;;;;;3.50;1.30;;;5.80;99.90;;;;;;5104042;28;20174;-82
2023/03/04 09:10:12;;;;;;;6.20;1.40;;;5.90;99.90;;;;;;5103782;28;20564;-82
2023/03/04 09:12:37;;;;;;;8.90;1.80;;;5.90;99.90;;;;;;5086077;28;20282;-82
2023/03/04 09:15:04;;;;;;;4.17;1.67;;;5.90;99.90;;;;;;5104009;28;20163;-81
2023/03/04 09:17:31;;;;;;;3.60;1.60;;;5.90;99.90;;;;;;5085312;28;20198;-81
2023/03/04 09:19:56;;;;;;;5.00;1.27;;;5.90;99.90;;;;;;5085978;28;20250;-81
2023/03/04 09:22:22;;;;;;;6.83;1.73;;;5.90;99.90;;;;;;5086462;28;20202;-82
2023/03/04 09:24:47;;;;;;;5.87;1.30;;;6.00;99.90;;;;;;5104064;28;20543;-82
2023/03/04 09:27:13;;;;;;;4.07;1.60;;;6.00;99.90;;;;;;5086491;28;20661;-82
2023/03/04 09:29:38;;;;;;;8.80;1.80;;;6.00;99.90;;;;;;5087340;28;20261;-82
2023/03/04 09:32:04;;;;;;;3.50;1.50;;;6.00;99.90;;;;;;5105416;28;20205;-82
2023/03/04 09:34:30;;;;;;;5.53;1.50;;;6.10;99.90;;;;;;5087586;28;20178;-82
2023/03/04 09:36:55;;;;;;;4.57;1.53;;;6.20;99.90;;;;;;5086330;28;20285;-82
2023/03/04 09:39:21;;;;;;;3.40;1.00;;;6.20;99.90;;;;;;5086796;28;20660;-83
2023/03/04 09:41:51;;;;;;;10.63;1.40;;;6.30;99.90;;;;;;5105404;28;20201;-82
2023/03/04 09:44:22;;;;;;;5.53;1.30;;;6.30;99.90;;;;;;5105106;28;20233;-82
2023/03/04 09:46:49;;;;;;;7.33;1.27;;;6.30;99.90;;;;;;5106963;28;20174;-82
2023/03/04 09:49:18;;;;;;;7.60;1.90;;;6.40;99.90;;;;;;5092901;28;20270;-82
2023/03/04 09:51:55;;;;;;;7.47;1.70;;;6.40;99.90;;;;;;5091022;28;20202;-83
2023/03/04 09:54:35;;;;;;;2.30;1.30;;;6.40;99.90;;;;;;5104979;28;20265;-82
2023/03/04 09:57:27;;;;;;;8.47;1.60;;;6.50;99.90;;;;;;5106474;28;20190;-82
2023/03/04 10:00:06;;;;;;;5.63;1.60;;;6.50;99.90;;;;;;5106673;28;20571;-82
2023/03/04 10:02:44;;;;;;;9.57;1.73;;;6.50;99.90;;;;;;5106001;28;20155;-82
2023/03/04 10:05:18;;;;;;;5.77;1.70;;;6.60;99.90;;;;;;5087948;28;20173;-82
2023/03/04 10:07:48;;;;;;;5.63;1.30;;;6.70;99.90;;;;;;5086604;28;20277;-82
2023/03/04 10:10:32;;;;;;;6.77;1.50;;;6.70;99.90;;;;;;5105703;28;20186;-82
2023/03/04 10:13:00;;;;;;;5.40;1.63;;;6.80;99.90;;;;;;5087123;28;20216;-82
2023/03/04 10:15:34;;;;;;;3.23;1.40;;;6.80;99.90;;;;;;5105067;28;20174;-83
2023/03/04 10:18:26;;;;;;;6.83;1.73;;;6.80;99.90;;;;;;5105277;28;20189;-81
2023/03/04 10:21:33;;;;;;;6.73;1.70;;;6.90;99.90;;;;;;5086094;28;20196;-82
2023/03/04 10:24:04;;;;;;;7.23;1.53;;;6.90;99.90;;;;;;5048072;28;20189;-83
2023/03/04 10:26:32;;;;;;;9.03;1.67;;;7.00;99.90;;;;;;5105055;28;20166;-83
2023/03/04 10:28:58;;;;;;;3.03;1.00;;;7.10;99.90;;;;;;5105065;28;20172;-83
2023/03/04 10:31:35;;;;;;;2.07;1.10;;;7.10;99.90;;;;;;5085818;28;20204;-83
2023/03/04 10:34:05;;;;;;;1.87;0.90;;;7.20;99.90;;;;;;5105125;28;20166;-83
2023/03/04 10:36:31;;;;;;;5.37;1.17;;;7.20;99.90;;;;;;5104795;28;20182;-83
2023/03/04 10:39:04;;;;;;;1.77;1.10;;;7.20;99.90;;;;;;5099538;28;20216;-86
2023/03/04 10:41:30;;;;;;;4.70;1.23;;;7.20;99.90;;;;;;5094404;28;20194;-85
2023/03/04 10:44:01;;;;;;;4.43;0.97;;;7.30;99.90;;;;;;5078133;28;20201;-84
2023/03/04 10:46:28;;;;;;;3.37;1.00;;;7.30;99.90;;;;;;5078263;28;20174;-84
2023/03/04 10:48:53;;;;;;;2.97;1.03;;;7.20;99.90;;;;;;5095305;28;20208;-85
2023/03/04 10:51:22;;;;;;;2.10;1.17;;;7.20;99.90;;;;;;5096950;28;20585;-84
2023/03/04 10:53:54;;;;;;;2.47;1.13;;;7.10;99.90;;;;;;5096900;28;20713;-85
2023/03/04 10:56:39;;;;;;;5.20;1.07;;;7.10;99.90;;;;;;5079151;28;20190;-85
2023/03/04 10:59:24;;;;;;;4.13;1.10;;;7.20;99.90;;;;;;5079581;28;20216;-85
2023/03/04 11:01:52;;;;;;;5.47;1.20;;;7.30;99.90;;;;;;5095234;28;20650;-86
2023/03/04 11:04:18;;;;;;;3.47;0.70;;;7.40;99.90;;;;;;5075148;28;20323;-85
2023/03/04 11:06:43;;;;;;;3.13;1.10;;;7.40;99.90;;;;;;5077460;28;20716;-82
2023/03/04 11:09:22;;;;;;;1.83;0.70;;;7.50;99.90;;;;;;5097547;28;20173;-85
2023/03/04 11:11:50;;;;;;;3.47;1.10;;;7.40;99.90;;;;;;5080794;28;20198;-83
2023/03/04 11:14:28;;;;;;;3.00;0.93;;;7.30;99.90;;;;;;5100019;28;20170;-84
2023/03/04 11:17:14;;;;;;;6.57;1.50;;;7.40;99.90;;;;;;5081478;28;20685;-85
2023/03/04 11:19:43;;;;;;;2.13;1.00;;;7.50;99.90;;;;;;5099264;28;20193;-81
2023/03/04 11:22:17;;;;;;;4.90;1.30;;;7.60;99.90;;;;;;5098394;28;20194;-81
2023/03/04 11:24:43;;;;;;;2.00;0.90;;;7.60;99.90;;;;;;5081505;28;20230;-80
2023/03/04 11:27:24;;;;;;;3.20;0.90;;;7.70;99.90;;;;;;5097667;28;20186;-80
2023/03/04 11:30:23;;;;;;;4.83;0.90;;;7.70;99.90;;;;;;5098610;28;20682;-82
2023/03/04 11:32:52;;;;;;;3.37;1.13;;;7.70;99.90;;;;;;5080029;28;20170;-80
2023/03/04 11:35:29;;;;;;;2.10;0.90;;;7.80;99.90;;;;;;5098270;28;20170;-80
2023/03/04 11:38:17;;;;;;;2.17;0.90;;;7.80;99.90;;;;;;5079220;28;20537;-81
2023/03/04 11:40:56;;;;;;;3.03;1.10;;;7.80;99.90;;;;;;5079737;28;20198;-80
2023/03/04 11:43:36;;;;;;;2.70;1.10;;;7.80;99.90;;;;;;5079830;28;20174;-80
2023/03/04 11:46:14;;;;;;;1.73;0.80;;;7.80;99.90;;;;;;5080563;28;20196;-80
2023/03/04 11:49:00;;;;;;;2.90;1.20;;;7.70;99.90;;;;;;5080438;28;20224;-80
2023/03/04 11:51:57;;;;;;;3.27;1.10;;;7.70;99.90;;;;;;5098179;28;20281;-81
2023/03/04 11:54:22;;;;;;;2.67;1.30;;;7.70;99.90;;;;;;5079848;28;20264;-81
2023/03/04 11:57:31;;;;;;;2.37;0.97;;;7.60;99.90;;;;;;5098226;28;20217;-81
2023/03/04 12:00:03;;;;;;;5.77;1.20;;;7.60;99.90;;;;;;5080050;28;20552;-80
2023/03/04 12:03:00;;;;;;;2.80;1.00;;;7.70;99.90;;;;;;5097772;28;20205;-83
2023/03/04 12:05:36;;;;;;;5.70;1.03;;;7.70;99.90;;;;;;5072878;28;20181;-83
2023/03/04 12:08:18;;;;;;;7.57;1.40;;;7.60;99.90;;;;;;5098975;28;20614;-83
2023/03/04 12:11:00;;;;;;;2.97;0.73;;;7.70;99.90;;;;;;5098747;28;20754;-83
2023/03/04 12:13:47;;;;;;;1.70;0.77;;;7.80;99.90;;;;;;5080809;28;20197;-83
2023/03/04 12:16:54;;;;;;;2.60;0.90;;;7.70;99.90;;;;;;5082064;28;20243;-83
2023/03/04 12:19:50;;;;;;;4.83;0.97;;;7.80;99.90;;;;;;5063523;28;20273;-84
2023/03/04 12:22:44;;;;;;;2.40;0.90;;;7.80;99.90;;;;;;5102548;28;20186;-84
2023/03/04 12:25:28;;;;;;;4.53;1.47;;;7.90;99.90;;;;;;5102821;28;20242;-84
2023/03/04 12:28:21;;;;;;;1.07;0.90;;;8.00;99.90;;;;;;5102468;28;20670;-84
2023/03/04 12:30:46;;;;;;;7.63;1.53;;;8.00;99.90;;;;;;5083490;28;20267;-84
2023/03/04 12:33:31;;;;;;;2.23;1.10;;;8.00;99.90;;;;;;5085015;28;20178;-85
2023/03/04 12:36:28;;;;;;;2.40;1.20;;;8.10;99.90;;;;;;5085958;28;20212;-84
2023/03/04 12:39:25;;;;;;;2.57;1.00;;;8.00;99.90;;;;;;5102194;28;20614;-84
2023/03/04 12:42:05;;;;;;;2.33;0.80;;;7.40;99.90;;;;;;5082569;28;20615;-84
2023/03/04 12:44:52;;;;;;;1.70;1.03;;;7.90;99.90;;;;;;5083068;28;20249;-84
2023/03/04 12:47:30;;;;;;;2.20;0.90;;;7.90;99.90;;;;;;5084092;28;20174;-84
2023/03/04 12:50:41;;;;;;;3.20;1.10;;;7.90;99.90;;;;;;5101278;28;20230;-85
2023/03/04 12:53:13;;;;;;;4.17;1.20;;;7.80;99.90;;;;;;5079655;28;20330;-84
2023/03/04 12:55:42;;;;;;;1.23;0.90;;;7.80;99.90;;;;;;5083571;28;20657;-84
2023/03/04 12:58:24;;;;;;;1.73;1.20;;;7.80;99.90;;;;;;5083490;28;20181;-84
2023/03/04 13:01:05;;;;;;;6.03;1.07;;;7.70;99.90;;;;;;5101918;28;20190;-84
2023/03/04 13:03:36;;;;;;;3.50;1.17;;;7.70;99.90;;;;;;5101693;28;20189;-84
2023/03/04 13:06:39;;;;;;;1.97;1.03;;;7.60;99.90;;;;;;5102438;28;20159;-83
2023/03/04 13:09:31;;;;;;;1.13;0.90;;;7.60;99.90;;;;;;5053869;28;20603;-82
2023/03/04 13:12:23;;;;;;;3.00;1.00;;;7.50;99.90;;;;;;5101268;28;20213;-83
2023/03/04 13:15:07;;;;;;;3.23;1.10;;;7.50;99.90;;;;;;5094194;28;20193;-84
2023/03/04 13:17:48;;;;;;;1.50;0.90;;;7.50;99.90;;;;;;5082517;28;20332;-84
2023/03/04 13:20:37;;;;;;;4.07;1.30;;;7.50;99.90;;;;;;5085392;28;20182;-83
2023/03/04 13:23:08;;;;;;;1.87;1.00;;;7.50;99.90;;;;;;5102380;28;20157;-82
2023/03/04 13:25:47;;;;;;;1.70;0.90;;;7.50;99.90;;;;;;5087276;28;20174;-82
2023/03/04 13:28:18;;;;;;;1.40;0.90;;;7.50;99.90;;;;;;5084346;28;20597;-82
2023/03/04 13:30:55;;;;;;;2.63;1.33;;;7.50;99.90;;;;;;5101209;28;20186;-81
2023/03/04 13:33:21;;;;;;;4.00;1.37;;;7.50;99.90;;;;;;5101955;28;20250;-83
2023/03/04 13:35:47;;;;;;;3.63;1.30;;;7.50;99.90;;;;;;5083805;28;20198;-83
2023/03/04 13:38:26;;;;;;;2.27;1.30;;;7.60;99.90;;;;;;5084072;28;20566;-83
2023/03/04 13:41:15;;;;;;;2.47;1.23;;;7.60;99.90;;;;;;5082680;28;20235;-83
2023/03/04 13:43:51;;;;;;;3.47;1.70;;;7.60;99.90;;;;;;5101965;28;20158;-83
2023/03/04 13:46:20;;;;;;;2.80;1.47;;;7.70;99.90;;;;;;5081854;28;20197;-81
2023/03/04 13:48:49;;;;;;;1.50;1.33;;;7.70;99.90;;;;;;5100178;28;20257;-80
2023/03/04 13:51:43;;;;;;;4.93;1.67;;;7.80;99.90;;;;;;5081237;28;20338;-81
2023/03/04 13:54:18;;;;;;;4.57;1.20;;;7.80;99.90;;;;;;5082408;28;20618;-80
2023/03/04 13:56:46;;;;;;;1.63;1.20;;;7.80;99.90;;;;;;5104301;28;20220;-80
2023/03/04 13:59:43;;;;;;;1.37;1.23;;;7.80;99.90;;;;;;5089527;28;20174;-81
2023/03/04 14:02:15;;;;;;;1.03;0.93;;;7.80;99.90;;;;;;5092387;28;20197;-80
2023/03/04 14:04:43;;;;;;;2.83;1.20;;;7.70;99.90;;;;;;5111486;28;20166;-81
2023/03/04 14:07:30;;;;;;;2.20;1.40;;;7.70;99.90;;;;;;5085735;28;20178;-81
2023/03/04 14:10:07;;;;;;;5.43;1.10;;;7.80;99.90;;;;;;5085648;28;20178;-81
2023/03/04 14:12:36;;;;;;;2.23;1.47;;;7.80;99.90;;;;;;5106180;28;20187;-82
2023/03/04 14:15:28;;;;;;;2.17;1.30;;;7.80;99.90;;;;;;5104509;28;20645;-81
2023/03/04 14:17:59;;;;;;;2.40;1.00;;;7.80;99.90;;;;;;5104337;28;20254;-81
2023/03/04 14:20:31;;;;;;;4.50;1.20;;;7.80;99.90;;;;;;5106674;28;20190;-80
2023/03/04 14:22:58;;;;;;;2.57;1.10;;;7.80;99.90;;;;;;5088406;28;20190;-81
2023/03/04 14:25:33;;;;;;;2.27;1.10;;;7.70;99.90;;;;;;5089382;28;20176;-80
2023/03/04 14:28:25;;;;;;;3.57;1.60;;;7.70;99.90;;;;;;5106734;28;20165;-80
2023/03/04 14:30:52;;;;;;;2.83;1.00;;;7.70;99.90;;;;;;5095235;28;20205;-80
2023/03/04 14:33:22;;;;;;;2.70;1.23;;;7.70;99.90;;;;;;5081243;28;20174;-81
2023/03/04 14:35:50;;;;;;;1.87;1.20;;;7.60;99.90;;;;;;5099057;28;20202;-83
2023/03/04 14:38:25;;;;;;;1.67;1.10;;;7.60;99.90;;;;;;5099723;28;20177;-83
2023/03/04 14:41:04;;;;;;;2.90;1.00;;;7.60;99.90;;;;;;5080341;28;20561;-82
2023/03/04 14:43:35;;;;;;;3.77;1.20;;;7.60;99.90;;;;;;5082233;28;20174;-84
2023/03/04 14:46:01;;;;;;;1.30;1.10;;;7.60;99.90;;;;;;5082492;28;20263;-83
2023/03/04 14:48:32;;;;;;;2.37;1.60;;;7.60;99.90;;;;;;5082841;28;20603;-83
2023/03/04 14:51:00;;;;;;;3.47;1.50;;;7.70;99.90;;;;;;5100645;28;20658;-83
2023/03/04 14:53:28;;;;;;;2.43;1.40;;;7.80;99.90;;;;;;5101637;28;20174;-83
2023/03/04 14:56:08;;;;;;;2.80;1.23;;;7.80;99.90;;;;;;5111110;28;20185;-82
2023/03/04 14:58:50;;;;;;;2.27;1.13;;;7.80;99.90;;;;;;5094482;28;20174;-82
2023/03/04 15:01:35;;;;;;;2.63;1.07;;;7.80;99.90;;;;;;5103931;28;20194;-80
2023/03/04 15:04:07;;;;;;;1.83;1.00;;;7.80;99.90;;;;;;5087447;28;20189;-83
2023/03/04 15:06:36;;;;;;;1.97;0.93;;;7.80;99.90;;;;;;5089557;28;20174;-83
2023/03/04 15:09:08;;;;;;;2.33;1.40;;;7.80;99.90;;;;;;5109479;28;20186;-83
2023/03/04 15:11:47;;;;;;;2.37;1.20;;;7.80;99.90;;;;;;5108638;28;20257;-82
2023/03/04 15:14:55;;;;;;;2.37;1.17;;;7.80;99.90;;;;;;5093658;28;20185;-83
2023/03/04 15:17:36;;;;;;;5.13;0.97;;;7.80;99.90;;;;;;5108217;28;20228;-82
2023/03/04 15:20:05;;;;;;;3.17;1.33;;;7.80;99.90;;;;;;5083385;28;20264;-82